Krebs, Oklahoma
Current Conditions -  °F | °C
As of 9:53 AM on Tuesday 21 Oct 2014 (Local Time) from KMLC Reporting Station
Few Clouds Few Clouds  
Wind Chill: 19°   Ceiling: Unl
Heat Index: 19°   Visibility: 10mi
Dew Point: 16°   Wind: 3mph
Humidity: 81%   Direction: 100°E
Pressure: 30.13"   Gusts: NA
Location:  34.93°N, 95.72°W
Report Text: KMLC 211453Z AUTO 10003KT 10SM FEW050 FEW110 19/16 A3013 RMK AO2 SLP197 T01940161 52014
Loading
Personal Weather Stations






























Interactive Weather Map
Tropical Storm Tracking
New forecast layout! Learn more

10-Day Weather Forecast

Advertisements
Track Severe Weather on mobile